createdAt,value
2023-09-10T00:00:14.115Z,101222.48
2023-09-10T00:00:36.699Z,101220.98
2023-09-10T00:00:59.273Z,101222.52
2023-09-10T00:01:21.665Z,101220.58
2023-09-10T00:01:45.260Z,101221.73
2023-09-10T00:02:07.932Z,101221.27
2023-09-10T00:02:30.426Z,101219.77
2023-09-10T00:02:52.944Z,101217.04
2023-09-10T00:03:15.479Z,101216.90
2023-09-10T00:03:38.227Z,101221.19
2023-09-10T00:04:00.525Z,101218.48
2023-09-10T00:04:22.893Z,101221.38
2023-09-10T00:04:45.160Z,101220.23
2023-09-10T00:05:09.253Z,101218.27
2023-09-10T00:05:32.771Z,101220.67
2023-09-10T00:05:55.167Z,101218.09
2023-09-10T00:06:17.417Z,101218.76
2023-09-10T00:06:40.094Z,101223.14
2023-09-10T00:07:02.690Z,101226.24
2023-09-10T00:07:24.975Z,101223.17
2023-09-10T00:07:47.423Z,101224.19
2023-09-10T00:08:09.793Z,101224.27
2023-09-10T00:08:32.977Z,101222.31
2023-09-10T00:08:55.203Z,101223.16
2023-09-10T00:09:17.568Z,101224.98
2023-09-10T00:09:40.234Z,101224.73
2023-09-10T00:10:02.689Z,101221.84
2023-09-10T00:10:24.875Z,101222.41
2023-09-10T00:10:47.477Z,101223.52
2023-09-10T00:11:09.796Z,101222.13
2023-09-10T00:11:32.171Z,101219.21
2023-09-10T00:11:54.410Z,101221.14
2023-09-10T00:12:16.614Z,101221.98
2023-09-10T00:12:38.821Z,101224.14
2023-09-10T00:13:01.248Z,101221.65
2023-09-10T00:13:23.903Z,101220.52
2023-09-10T00:13:46.249Z,101223.80
2023-09-10T00:14:08.716Z,101221.77
2023-09-10T00:14:30.988Z,101223.20
2023-09-10T00:14:53.643Z,101221.73
2023-09-10T00:15:16.055Z,101220.91
2023-09-10T00:15:38.612Z,101221.89
2023-09-10T00:16:01.319Z,101218.92
2023-09-10T00:16:23.893Z,101222.67
2023-09-10T00:16:46.258Z,101221.58
2023-09-10T00:17:08.781Z,101219.56
2023-09-10T00:17:31.076Z,101221.21
2023-09-10T00:17:53.753Z,101219.17
2023-09-10T00:18:16.280Z,101220.58
2023-09-10T00:18:38.845Z,101220.45
2023-09-10T00:19:01.336Z,101221.92
2023-09-10T00:19:23.565Z,101221.36
2023-09-10T00:19:46.025Z,101220.34
2023-09-10T00:20:09.601Z,101225.67
2023-09-10T00:20:31.968Z,101224.19
2023-09-10T00:20:54.366Z,101224.45
2023-09-10T00:21:16.695Z,101225.92
2023-09-10T00:21:39.302Z,101224.74
2023-09-10T00:22:01.696Z,101226.07
2023-09-10T00:22:23.958Z,101224.76
2023-09-10T00:22:46.322Z,101226.05
2023-09-10T00:23:09.007Z,101224.14
2023-09-10T00:23:31.562Z,101224.02
2023-09-10T00:23:53.770Z,101226.20
2023-09-10T00:24:16.200Z,101226.79
2023-09-10T00:24:38.552Z,101225.12
2023-09-10T00:25:00.875Z,101223.60
2023-09-10T00:25:23.353Z,101227.21
2023-09-10T00:25:45.712Z,101222.66
2023-09-10T00:26:08.875Z,101223.45
2023-09-10T00:26:31.240Z,101223.88
2023-09-10T00:26:53.556Z,101223.45
2023-09-10T00:27:16.062Z,101225.77
2023-09-10T00:27:38.373Z,101227.41
2023-09-10T00:28:00.767Z,101223.41
2023-09-10T00:28:23.863Z,101223.55
2023-09-10T00:28:46.216Z,101226.48
2023-09-10T00:29:08.569Z,101223.41
2023-09-10T00:29:31.067Z,101226.13
2023-09-10T00:29:53.280Z,101224.75
2023-09-10T00:30:15.683Z,101225.48
2023-09-10T00:30:38.559Z,101224.67
2023-09-10T00:31:00.806Z,101221.24
2023-09-10T00:31:23.184Z,101222.52
2023-09-10T00:31:46.196Z,101223.84
2023-09-10T00:32:08.622Z,101224.59
2023-09-10T00:32:31.023Z,101224.51
2023-09-10T00:32:53.511Z,101227.21
2023-09-10T00:33:19.149Z,101224.88
2023-09-10T00:33:41.557Z,101225.02
2023-09-10T00:34:03.878Z,101222.91
2023-09-10T00:34:27.146Z,101224.66
2023-09-10T00:34:49.438Z,101225.46
2023-09-10T00:35:12.114Z,101223.90
2023-09-10T00:35:34.485Z,101225.82
2023-09-10T00:35:56.941Z,101227.46
2023-09-10T00:36:19.142Z,101226.16
2023-09-10T00:36:41.536Z,101223.23
2023-09-10T00:37:03.930Z,101225.05
2023-09-10T00:37:26.334Z,101226.02
2023-09-10T00:37:48.609Z,101225.35
2023-09-10T00:38:11.187Z,101224.36
2023-09-10T00:38:33.639Z,101225.44
2023-09-10T00:38:56.390Z,101226.70
2023-09-10T00:39:19.500Z,101225.54
2023-09-10T00:39:41.753Z,101227.34
2023-09-10T00:40:05.630Z,101227.79
2023-09-10T00:40:27.933Z,101224.64
2023-09-10T00:40:50.323Z,101225.20
2023-09-10T00:41:12.658Z,101229.98
2023-09-10T00:41:35.154Z,101226.67
2023-09-10T00:41:57.365Z,101226.20
2023-09-10T00:42:19.759Z,101225.70
2023-09-10T00:42:42.160Z,101227.13
2023-09-10T00:43:05.168Z,101225.26
2023-09-10T00:43:27.564Z,101222.33
2023-09-10T00:43:50.523Z,101224.11
2023-09-10T00:44:13.085Z,101224.83
2023-09-10T00:44:35.462Z,101225.42
2023-09-10T00:44:57.802Z,101224.25
2023-09-10T00:45:20.019Z,101223.44
2023-09-10T00:45:42.315Z,101222.05
2023-09-10T00:46:04.802Z,101223.30
2023-09-10T00:46:27.378Z,101224.76
2023-09-10T00:46:50.541Z,101225.86
2023-09-10T00:47:12.943Z,101223.05
2023-09-10T00:47:36.037Z,101223.25
2023-09-10T00:47:58.530Z,101223.09
2023-09-10T00:48:20.836Z,101224.20
2023-09-10T00:48:43.088Z,101224.81
2023-09-10T00:49:05.337Z,101225.04
2023-09-10T00:49:28.939Z,101223.91
2023-09-10T00:49:51.207Z,101224.64
2023-09-10T00:50:16.502Z,101224.15
2023-09-10T00:50:38.857Z,101224.17
2023-09-10T00:51:01.231Z,101223.84
2023-09-10T00:51:23.504Z,101225.35
2023-09-10T00:51:46.812Z,101225.42
2023-09-10T00:52:09.182Z,101225.02
2023-09-10T00:52:31.700Z,101228.30
2023-09-10T00:52:54.614Z,101224.42
2023-09-10T00:53:16.911Z,101227.45
2023-09-10T00:53:39.503Z,101224.67
2023-09-10T00:54:01.981Z,101229.11
2023-09-10T00:54:24.373Z,101228.28
2023-09-10T00:54:46.767Z,101227.64
2023-09-10T00:55:09.281Z,101227.33
2023-09-10T00:55:34.146Z,101228.45
2023-09-10T00:55:56.638Z,101232.23
2023-09-10T00:56:18.957Z,101229.11
2023-09-10T00:56:41.319Z,101229.22
2023-09-10T00:57:04.446Z,101226.25
2023-09-10T00:57:27.196Z,101231.10
2023-09-10T00:57:49.638Z,101228.36
2023-09-10T00:58:11.959Z,101229.65
2023-09-10T00:58:34.249Z,101228.70
2023-09-10T00:58:56.660Z,101228.23
2023-09-10T00:59:18.984Z,101228.83
2023-09-10T00:59:41.432Z,101230.65
2023-09-10T01:00:09.821Z,101230.86
2023-09-10T01:00:32.464Z,101228.66
2023-09-10T01:00:54.686Z,101231.02
2023-09-10T01:01:17.061Z,101234.44
2023-09-10T01:01:40.105Z,101235.37
2023-09-10T01:02:03.545Z,101234.88
2023-09-10T01:02:26.311Z,101232.88
2023-09-10T01:02:49.859Z,101232.44
2023-09-10T01:03:12.477Z,101236.33
2023-09-10T01:03:35.835Z,101233.27
2023-09-10T01:03:58.338Z,101235.61
2023-09-10T01:04:20.757Z,101233.36
2023-09-10T01:04:43.128Z,101233.41
2023-09-10T01:05:05.663Z,101232.95
2023-09-10T01:05:28.850Z,101235.45
2023-09-10T01:05:51.710Z,101231.77
2023-09-10T01:06:14.574Z,101230.83
2023-09-10T01:06:38.224Z,101235.35
2023-09-10T01:07:00.923Z,101229.67
2023-09-10T01:07:23.220Z,101229.73
2023-09-10T01:07:45.915Z,101228.05
2023-09-10T01:08:08.225Z,101229.15
2023-09-10T01:08:30.420Z,101227.25
2023-09-10T01:08:52.641Z,101228.21
2023-09-10T01:09:14.906Z,101224.94
2023-09-10T01:09:37.132Z,101225.95
2023-09-10T01:09:59.580Z,101227.52
2023-09-10T01:10:22.211Z,101228.00
2023-09-10T01:10:54.168Z,101225.05
2023-09-10T01:11:26.060Z,101230.21
2023-09-10T01:11:48.500Z,101232.09
2023-09-10T01:12:11.106Z,101227.91
2023-09-10T01:12:37.072Z,101229.08
2023-09-10T01:13:02.438Z,101229.17
2023-09-10T01:13:32.293Z,101230.39
2023-09-10T01:14:14.199Z,101228.77
2023-09-10T01:14:42.459Z,101227.33
2023-09-10T01:15:16.236Z,101226.58
2023-09-10T01:15:58.764Z,101228.79
2023-09-10T01:16:38.788Z,101225.58
2023-09-10T01:17:11.347Z,101231.29
2023-09-10T01:18:09.324Z,101226.83
2023-09-10T01:18:31.621Z,101233.41
2023-09-10T01:18:57.841Z,101231.59
2023-09-10T01:19:26.582Z,101230.97
2023-09-10T01:19:51.673Z,101229.29
2023-09-10T01:20:34.871Z,101231.81
2023-09-10T01:21:15.722Z,101229.15
2023-09-10T01:21:38.018Z,101230.52
2023-09-10T01:22:12.469Z,101228.88
2023-09-10T01:22:40.731Z,101226.40
2023-09-10T01:23:06.115Z,101227.80
2023-09-10T01:23:47.423Z,101227.54
2023-09-10T01:24:19.834Z,101227.77
2023-09-10T01:24:51.858Z,101223.12
2023-09-10T01:25:14.184Z,101225.63
2023-09-10T01:25:36.749Z,101225.28
2023-09-10T01:25:59.338Z,101224.11
2023-09-10T01:26:21.670Z,101222.45
2023-09-10T01:26:44.006Z,101223.95
2023-09-10T01:27:06.263Z,101220.05
2023-09-10T01:27:28.709Z,101221.27
2023-09-10T01:27:51.100Z,101223.86
2023-09-10T01:28:13.427Z,101222.66
2023-09-10T01:28:35.665Z,101223.42
2023-09-10T01:28:58.310Z,101223.27
2023-09-10T01:29:20.808Z,101224.73
2023-09-10T01:29:44.121Z,101222.34
2023-09-10T01:30:10.538Z,101222.59
2023-09-10T01:30:33.219Z,101224.06
2023-09-10T01:30:55.501Z,101223.23
2023-09-10T01:31:19.188Z,101222.94
2023-09-10T01:31:42.267Z,101224.45
2023-09-10T01:32:06.200Z,101228.00
2023-09-10T01:32:31.244Z,101224.41
2023-09-10T01:32:56.041Z,101222.89
2023-09-10T01:33:36.482Z,101223.69
2023-09-10T01:34:00.007Z,101223.75
2023-09-10T01:34:22.711Z,101224.35
2023-09-10T01:34:52.626Z,101225.28
2023-09-10T01:35:21.131Z,101227.09
2023-09-10T01:35:46.981Z,101223.28
2023-09-10T01:36:21.688Z,101226.39
2023-09-10T01:36:44.406Z,101224.38
2023-09-10T01:37:17.297Z,101223.04
2023-09-10T01:37:43.546Z,101225.38
2023-09-10T01:38:08.533Z,101226.67
2023-09-10T01:38:37.575Z,101225.31
2023-09-10T01:39:03.148Z,101225.77
2023-09-10T01:39:26.495Z,101226.16
2023-09-10T01:39:49.814Z,101224.09
2023-09-10T01:40:13.325Z,101225.69
2023-09-10T01:40:36.458Z,101225.52
2023-09-10T01:41:03.100Z,101224.39
2023-09-10T01:41:25.615Z,101225.02
2023-09-10T01:41:48.659Z,101223.17
2023-09-10T01:42:10.962Z,101226.70
2023-09-10T01:42:33.958Z,101226.52
2023-09-10T01:42:56.545Z,101229.40
2023-09-10T01:43:19.345Z,101224.73
2023-09-10T01:43:41.997Z,101224.45
2023-09-10T01:44:04.403Z,101227.46
2023-09-10T01:44:26.986Z,101225.30
2023-09-10T01:44:49.188Z,101226.15
2023-09-10T01:45:11.690Z,101223.82
2023-09-10T01:45:35.266Z,101223.80
2023-09-10T01:45:57.610Z,101225.42
2023-09-10T01:46:19.982Z,101228.11
2023-09-10T01:46:43.035Z,101225.31
2023-09-10T01:47:05.711Z,101223.58
2023-09-10T01:47:28.123Z,101225.98
2023-09-10T01:47:50.697Z,101223.90
2023-09-10T01:48:13.011Z,101224.67
2023-09-10T01:48:35.577Z,101226.66
2023-09-10T01:48:57.973Z,101225.02
2023-09-10T01:49:20.377Z,101224.70
2023-09-10T01:49:42.720Z,101224.80
2023-09-10T01:50:06.083Z,101224.54
2023-09-10T01:50:31.610Z,101223.55
2023-09-10T01:50:54.679Z,101223.42
2023-09-10T01:51:17.833Z,101223.83
2023-09-10T01:51:40.110Z,101223.73
2023-09-10T01:52:02.408Z,101223.42
2023-09-10T01:52:24.779Z,101226.69
2023-09-10T01:52:47.517Z,101226.57
2023-09-10T01:53:10.024Z,101226.14
2023-09-10T01:53:32.340Z,101228.45
2023-09-10T01:53:54.908Z,101226.09
2023-09-10T01:54:17.137Z,101230.02
2023-09-10T01:54:39.334Z,101227.09
2023-09-10T01:55:01.588Z,101225.38
2023-09-10T01:55:23.962Z,101229.30
2023-09-10T01:55:48.739Z,101229.37
2023-09-10T01:56:11.256Z,101227.50
2023-09-10T01:56:33.713Z,101229.11
2023-09-10T01:56:56.622Z,101229.36
2023-09-10T01:57:19.037Z,101230.67
2023-09-10T01:57:41.296Z,101228.29
2023-09-10T01:58:03.584Z,101227.80
2023-09-10T01:58:25.924Z,101225.02
2023-09-10T01:58:48.254Z,101228.50
2023-09-10T01:59:10.739Z,101228.45
2023-09-10T01:59:33.922Z,101228.52
2023-09-10T01:59:56.158Z,101228.65
2023-09-10T02:00:18.619Z,101229.08
2023-09-10T02:00:41.323Z,101226.88
2023-09-10T02:01:04.026Z,101229.91
2023-09-10T02:01:26.453Z,101229.79
2023-09-10T02:01:48.796Z,101227.23
2023-09-10T02:02:11.226Z,101230.00
2023-09-10T02:02:33.740Z,101227.79
2023-09-10T02:02:56.647Z,101227.57
2023-09-10T02:03:19.324Z,101230.36
2023-09-10T02:03:42.571Z,101227.02
2023-09-10T02:04:05.573Z,101227.41
2023-09-10T02:04:28.107Z,101228.36
2023-09-10T02:04:50.514Z,101228.30
2023-09-10T02:05:12.966Z,101228.65
2023-09-10T02:05:35.387Z,101231.04
2023-09-10T02:06:00.314Z,101229.38
2023-09-10T02:06:22.961Z,101232.38
2023-09-10T02:06:45.240Z,101228.66
2023-09-10T02:07:07.713Z,101227.85
2023-09-10T02:07:30.112Z,101228.08
2023-09-10T02:07:52.570Z,101229.66
2023-09-10T02:08:16.395Z,101227.50
2023-09-10T02:08:39.200Z,101228.62
2023-09-10T02:09:01.880Z,101227.63
2023-09-10T02:09:24.410Z,101227.17
2023-09-10T02:09:47.290Z,101228.80
2023-09-10T02:10:09.687Z,101226.94
2023-09-10T02:10:33.167Z,101224.39
2023-09-10T02:10:55.607Z,101227.24
2023-09-10T02:11:18.082Z,101227.80
2023-09-10T02:11:40.480Z,101227.19
2023-09-10T02:12:03.021Z,101227.75
2023-09-10T02:12:26.169Z,101228.34
2023-09-10T02:12:48.423Z,101231.02
2023-09-10T02:13:10.690Z,101227.38
2023-09-10T02:13:33.296Z,101230.45
2023-09-10T02:13:56.135Z,101227.55
2023-09-10T02:14:18.573Z,101228.80
2023-09-10T02:14:41.000Z,101226.90
2023-09-10T02:15:06.740Z,101226.65
2023-09-10T02:15:29.884Z,101228.11
2023-09-10T02:15:52.270Z,101228.89
2023-09-10T02:16:14.714Z,101230.35
2023-09-10T02:16:37.390Z,101228.11
2023-09-10T02:16:59.985Z,101229.30
2023-09-10T02:17:22.546Z,101232.79
2023-09-10T02:17:46.888Z,101232.52
2023-09-10T02:18:10.012Z,101231.21
2023-09-10T02:18:32.370Z,101231.65
2023-09-10T02:18:54.739Z,101233.23
2023-09-10T02:19:17.136Z,101234.03
2023-09-10T02:19:39.387Z,101234.10
2023-09-10T02:20:01.889Z,101231.90
2023-09-10T02:20:24.439Z,101232.48
2023-09-10T02:20:46.825Z,101232.00
2023-09-10T02:21:10.809Z,101232.96
2023-09-10T02:21:33.271Z,101234.64
2023-09-10T02:21:56.590Z,101229.49
2023-09-10T02:22:19.082Z,101233.48
2023-09-10T02:22:41.512Z,101232.41
2023-09-10T02:23:04.247Z,101231.72
2023-09-10T02:23:27.254Z,101232.98
2023-09-10T02:23:49.573Z,101233.63
2023-09-10T02:24:11.924Z,101233.48
2023-09-10T02:24:34.189Z,101233.04
2023-09-10T02:24:56.405Z,101233.58
2023-09-10T02:25:18.807Z,101233.78
2023-09-10T02:25:41.168Z,101232.24
2023-09-10T02:26:03.771Z,101229.84
2023-09-10T02:26:26.307Z,101229.69
2023-09-10T02:26:48.819Z,101231.80
2023-09-10T02:27:11.284Z,101230.95
2023-09-10T02:27:33.692Z,101232.05
2023-09-10T02:27:57.304Z,101230.67
2023-09-10T02:28:24.861Z,101230.99
2023-09-10T02:28:47.412Z,101231.40
2023-09-10T02:29:09.834Z,101227.91
2023-09-10T02:29:32.214Z,101228.14
2023-09-10T02:29:54.613Z,101225.36
2023-09-10T02:30:16.813Z,101226.79
2023-09-10T02:30:39.202Z,101226.50
2023-09-10T02:31:05.179Z,101225.14
2023-09-10T02:31:27.809Z,101225.73
2023-09-10T02:31:50.206Z,101223.09
2023-09-10T02:32:12.629Z,101224.31
2023-09-10T02:32:36.304Z,101223.86
2023-09-10T02:32:58.939Z,101223.70
2023-09-10T02:33:21.340Z,101222.01
2023-09-10T02:33:43.730Z,101222.75
2023-09-10T02:34:05.969Z,101222.08
2023-09-10T02:34:28.307Z,101223.15
2023-09-10T02:34:52.921Z,101223.00
2023-09-10T02:35:15.290Z,101224.64
2023-09-10T02:35:37.750Z,101224.88
2023-09-10T02:36:00.388Z,101222.64
2023-09-10T02:36:22.643Z,101224.73
2023-09-10T02:36:44.976Z,101223.48
2023-09-10T02:37:07.234Z,101221.50
2023-09-10T02:37:29.634Z,101223.16
2023-09-10T02:37:51.958Z,101221.09
2023-09-10T02:38:14.470Z,101222.91
2023-09-10T02:38:38.010Z,101220.02
2023-09-10T02:39:00.717Z,101218.98
2023-09-10T02:39:22.950Z,101220.98
2023-09-10T02:39:45.353Z,101220.49
2023-09-10T02:40:09.216Z,101218.44
2023-09-10T02:40:31.471Z,101220.08
2023-09-10T02:40:53.733Z,101220.87
2023-09-10T02:41:16.211Z,101217.34
2023-09-10T02:41:38.668Z,101217.85
2023-09-10T02:42:00.925Z,101219.77
2023-09-10T02:42:23.366Z,101218.91
2023-09-10T02:42:45.657Z,101217.71
2023-09-10T02:43:08.442Z,101218.94
2023-09-10T02:43:30.882Z,101217.75
2023-09-10T02:43:53.238Z,101220.27
2023-09-10T02:44:15.567Z,101218.02
2023-09-10T02:44:37.885Z,101216.50
2023-09-10T02:45:00.250Z,101215.50
2023-09-10T02:45:22.605Z,101217.67
2023-09-10T02:45:44.982Z,101216.47
2023-09-10T02:46:07.210Z,101217.60
2023-09-10T02:46:29.689Z,101217.10
2023-09-10T02:46:53.816Z,101216.06
2023-09-10T02:47:16.079Z,101216.11
2023-09-10T02:47:38.373Z,101210.54
2023-09-10T02:48:01.056Z,101212.16
2023-09-10T02:48:23.470Z,101214.45
2023-09-10T02:48:45.733Z,101212.02
2023-09-10T02:49:08.168Z,101214.83
2023-09-10T02:49:30.388Z,101214.39
2023-09-10T02:49:52.841Z,101217.56
2023-09-10T02:50:15.270Z,101214.77
2023-09-10T02:50:37.656Z,101214.50
2023-09-10T02:51:00.260Z,101211.88
2023-09-10T02:51:22.508Z,101214.88
2023-09-10T02:51:44.854Z,101213.67
2023-09-10T02:52:07.078Z,101215.98
2023-09-10T02:52:31.851Z,101217.30
2023-09-10T02:52:54.341Z,101216.23
2023-09-10T02:53:16.725Z,101214.85
2023-09-10T02:53:39.196Z,101219.29
2023-09-10T02:54:01.798Z,101218.98
2023-09-10T02:54:24.200Z,101217.05
2023-09-10T02:54:46.698Z,101219.02
2023-09-10T02:55:10.002Z,101217.67
2023-09-10T02:55:32.616Z,101218.92
2023-09-10T02:56:01.526Z,101217.88
2023-09-10T02:56:23.883Z,101219.07
2023-09-10T02:56:46.198Z,101220.88
2023-09-10T02:57:08.884Z,101218.66
2023-09-10T02:57:31.077Z,101220.30
2023-09-10T02:57:53.369Z,101220.65
2023-09-10T02:58:15.677Z,101219.80
2023-09-10T02:58:38.352Z,101218.54
2023-09-10T02:59:00.971Z,101220.33
2023-09-10T02:59:24.493Z,101220.90
2023-09-10T02:59:46.769Z,101220.20
2023-09-10T03:00:10.036Z,101224.35
2023-09-10T03:00:33.003Z,101222.48
2023-09-10T03:00:55.311Z,101224.48
2023-09-10T03:01:17.669Z,101224.10
2023-09-10T03:01:40.160Z,101225.47
2023-09-10T03:02:02.491Z,101221.98
2023-09-10T03:02:24.969Z,101222.35
2023-09-10T03:02:47.631Z,101221.87
2023-09-10T03:03:10.141Z,101224.56
2023-09-10T03:03:33.345Z,101222.39
2023-09-10T03:03:55.798Z,101221.72
2023-09-10T03:04:18.409Z,101224.40
2023-09-10T03:04:40.935Z,101224.52
2023-09-10T03:05:03.750Z,101222.96
2023-09-10T03:05:26.916Z,101219.50
2023-09-10T03:05:49.335Z,101222.73
2023-09-10T03:06:14.830Z,101221.02
2023-09-10T03:06:37.305Z,101221.45
2023-09-10T03:07:02.600Z,101219.20
2023-09-10T03:07:25.011Z,101219.98
2023-09-10T03:07:47.293Z,101221.60
2023-09-10T03:08:09.625Z,101222.55
2023-09-10T03:08:37.392Z,101223.33
2023-09-10T03:09:00.466Z,101221.30
2023-09-10T03:09:22.666Z,101220.64
2023-09-10T03:09:44.919Z,101222.48
2023-09-10T03:10:07.633Z,101218.98
2023-09-10T03:10:29.982Z,101220.09
2023-09-10T03:10:52.620Z,101219.92
2023-09-10T03:11:15.350Z,101219.30
2023-09-10T03:11:39.256Z,101219.14
2023-09-10T03:12:21.154Z,101219.05
2023-09-10T03:12:43.645Z,101220.92
2023-09-10T03:13:06.053Z,101222.91
2023-09-10T03:13:28.345Z,101222.48
2023-09-10T03:13:50.851Z,101225.86
2023-09-10T03:14:13.575Z,101222.08
2023-09-10T03:14:36.371Z,101222.05
2023-09-10T03:14:58.852Z,101221.66
2023-09-10T03:15:21.966Z,101222.50
2023-09-10T03:15:47.928Z,101220.52
2023-09-10T03:16:10.332Z,101220.90
2023-09-10T03:16:33.667Z,101220.63
2023-09-10T03:16:56.081Z,101219.99
2023-09-10T03:17:18.831Z,101224.77
2023-09-10T03:17:41.269Z,101219.98
2023-09-10T03:18:03.823Z,101219.88
2023-09-10T03:18:26.168Z,101221.02
2023-09-10T03:18:48.463Z,101219.40
2023-09-10T03:19:10.985Z,101220.27
2023-09-10T03:19:33.371Z,101224.13
2023-09-10T03:19:56.201Z,101223.63
2023-09-10T03:20:18.583Z,101222.05
2023-09-10T03:20:40.904Z,101223.70
2023-09-10T03:21:04.616Z,101225.33
2023-09-10T03:21:27.394Z,101222.08
2023-09-10T03:21:49.792Z,101226.36
2023-09-10T03:22:12.417Z,101223.77
2023-09-10T03:22:35.142Z,101226.48
2023-09-10T03:23:00.638Z,101225.29
2023-09-10T03:23:23.171Z,101226.42
2023-09-10T03:23:45.568Z,101228.92
2023-09-10T03:24:07.860Z,101226.85
2023-09-10T03:24:30.176Z,101226.92
2023-09-10T03:24:52.557Z,101228.75
2023-09-10T03:25:15.471Z,101228.59
2023-09-10T03:25:39.304Z,101226.73
2023-09-10T03:26:01.852Z,101226.78
2023-09-10T03:26:24.914Z,101222.77
2023-09-10T03:26:47.241Z,101229.28
2023-09-10T03:27:09.636Z,101228.47
2023-09-10T03:27:32.063Z,101228.70
2023-09-10T03:27:54.505Z,101227.81
2023-09-10T03:28:16.855Z,101229.11
2023-09-10T03:28:39.309Z,101230.83
2023-09-10T03:29:02.092Z,101229.86
2023-09-10T03:29:24.634Z,101231.30
2023-09-10T03:29:46.887Z,101231.52
2023-09-10T03:30:09.497Z,101233.42
2023-09-10T03:30:31.907Z,101232.92
2023-09-10T03:30:57.678Z,101235.39
2023-09-10T03:31:20.154Z,101235.92
2023-09-10T03:31:42.835Z,101235.92
2023-09-10T03:32:07.685Z,101233.87
2023-09-10T03:32:30.619Z,101235.97
2023-09-10T03:32:53.161Z,101234.67
2023-09-10T03:33:16.052Z,101235.03
2023-09-10T03:33:38.729Z,101236.19
2023-09-10T03:34:01.158Z,101236.58
2023-09-10T03:34:23.557Z,101238.02
2023-09-10T03:34:45.987Z,101237.69
2023-09-10T03:35:08.870Z,101238.55
2023-09-10T03:35:31.495Z,101238.40
2023-09-10T03:35:54.347Z,101236.30
2023-09-10T03:36:16.991Z,101238.22
2023-09-10T03:36:39.279Z,101235.08
2023-09-10T03:37:01.794Z,101239.33
2023-09-10T03:37:24.505Z,101235.19
2023-09-10T03:37:46.940Z,101236.52
2023-09-10T03:38:09.268Z,101239.38
2023-09-10T03:38:31.983Z,101242.33
2023-09-10T03:38:54.589Z,101239.98
2023-09-10T03:39:16.996Z,101239.43
2023-09-10T03:39:39.716Z,101238.86
2023-09-10T03:40:02.600Z,101238.50
2023-09-10T03:40:24.933Z,101240.93
2023-09-10T03:40:47.210Z,101239.54
2023-09-10T03:41:09.775Z,101238.85
2023-09-10T03:41:32.091Z,101239.60
2023-09-10T03:41:54.766Z,101239.80
2023-09-10T03:42:17.765Z,101242.79
2023-09-10T03:42:40.618Z,101242.41
2023-09-10T03:43:03.258Z,101243.12
2023-09-10T03:43:25.513Z,101244.74
2023-09-10T03:43:48.351Z,101244.00
2023-09-10T03:44:10.758Z,101244.85
2023-09-10T03:44:33.221Z,101247.87
2023-09-10T03:44:55.434Z,101246.44
2023-09-10T03:45:17.839Z,101246.10
2023-09-10T03:45:40.413Z,101244.32
2023-09-10T03:46:02.742Z,101248.40
2023-09-10T03:46:25.329Z,101245.95
2023-09-10T03:46:48.249Z,101247.05
2023-09-10T03:47:10.963Z,101247.98
2023-09-10T03:47:35.352Z,101247.81
2023-09-10T03:47:57.851Z,101248.70
2023-09-10T03:48:20.393Z,101248.51
2023-09-10T03:48:43.079Z,101246.80
2023-09-10T03:49:05.680Z,101250.94
2023-09-10T03:49:28.183Z,101248.34
2023-09-10T03:49:50.612Z,101249.71
2023-09-10T03:50:13.337Z,101249.57
2023-09-10T03:50:36.303Z,101249.19
2023-09-10T03:50:58.594Z,101249.88
2023-09-10T03:51:20.822Z,101250.05
2023-09-10T03:51:43.195Z,101250.38
2023-09-10T03:52:18.497Z,101252.81
2023-09-10T03:52:40.811Z,101249.95
2023-09-10T03:53:03.695Z,101252.35
2023-09-10T03:53:26.093Z,101252.95
2023-09-10T03:53:48.468Z,101253.34
2023-09-10T03:54:13.118Z,101249.12
2023-09-10T03:54:35.507Z,101253.82
2023-09-10T03:54:57.911Z,101255.02
2023-09-10T03:55:20.369Z,101255.39
2023-09-10T03:55:42.938Z,101254.13
2023-09-10T03:56:05.566Z,101255.86
2023-09-10T03:56:27.941Z,101256.73
2023-09-10T03:56:50.144Z,101256.39
2023-09-10T03:57:12.446Z,101252.95
2023-09-10T03:57:34.904Z,101252.35
2023-09-10T03:57:57.404Z,101254.89
2023-09-10T03:58:19.671Z,101252.95
2023-09-10T03:58:42.388Z,101252.92
2023-09-10T03:59:04.910Z,101251.15
2023-09-10T03:59:29.030Z,101250.07
2023-09-10T03:59:51.542Z,101253.78
2023-09-10T04:00:14.149Z,101247.83
2023-09-10T04:00:36.698Z,101252.02
2023-09-10T04:00:59.274Z,101251.48
2023-09-10T04:01:21.747Z,101252.20
2023-09-10T04:01:43.997Z,101254.15
2023-09-10T04:02:06.355Z,101249.20
2023-09-10T04:02:30.222Z,101250.08
2023-09-10T04:02:52.696Z,101253.88
2023-09-10T04:03:15.272Z,101249.52
2023-09-10T04:03:37.788Z,101251.07
2023-09-10T04:04:00.277Z,101253.49
2023-09-10T04:04:22.679Z,101251.88
2023-09-10T04:04:45.302Z,101250.83
2023-09-10T04:05:09.630Z,101255.36
2023-09-10T04:05:32.054Z,101258.16
2023-09-10T04:05:54.416Z,101252.46
2023-09-10T04:06:16.614Z,101255.27
2023-09-10T04:06:38.905Z,101253.65
2023-09-10T04:07:01.318Z,101252.56
2023-09-10T04:07:23.597Z,101251.98
2023-09-10T04:07:45.920Z,101254.94
2023-09-10T04:08:08.520Z,101256.48
2023-09-10T04:08:30.924Z,101258.18
2023-09-10T04:08:53.162Z,101256.52
2023-09-10T04:09:15.418Z,101254.94
2023-09-10T04:09:37.902Z,101256.96
2023-09-10T04:10:00.281Z,101257.65
2023-09-10T04:10:23.305Z,101257.77
2023-09-10T04:10:45.587Z,101259.30
2023-09-10T04:11:10.393Z,101255.90
2023-09-10T04:11:32.992Z,101255.48
2023-09-10T04:11:56.069Z,101256.33
2023-09-10T04:12:18.456Z,101258.20
2023-09-10T04:12:40.783Z,101255.55
2023-09-10T04:13:03.102Z,101256.00
2023-09-10T04:13:26.466Z,101254.20
2023-09-10T04:13:48.829Z,101256.03
2023-09-10T04:14:11.349Z,101256.31
2023-09-10T04:14:33.788Z,101254.66
2023-09-10T04:14:55.997Z,101254.60
2023-09-10T04:15:18.624Z,101254.17
2023-09-10T04:15:40.882Z,101253.23
2023-09-10T04:16:03.705Z,101258.11
2023-09-10T04:16:27.716Z,101258.38
2023-09-10T04:16:50.307Z,101257.48
2023-09-10T04:17:18.667Z,101258.88
2023-09-10T04:17:41.205Z,101256.50
2023-09-10T04:18:05.356Z,101254.81
2023-09-10T04:18:27.591Z,101255.02
2023-09-10T04:18:49.881Z,101255.14
2023-09-10T04:19:12.266Z,101256.08
2023-09-10T04:19:34.482Z,101257.00
2023-09-10T04:19:57.228Z,101254.69
2023-09-10T04:20:22.285Z,101254.27
2023-09-10T04:20:44.613Z,101257.19
2023-09-10T04:21:07.729Z,101254.17
2023-09-10T04:21:29.930Z,101255.06
2023-09-10T04:21:52.318Z,101252.13
2023-09-10T04:22:16.053Z,101255.15
2023-09-10T04:22:38.483Z,101254.71
2023-09-10T04:23:00.958Z,101252.69
2023-09-10T04:23:23.348Z,101250.53
2023-09-10T04:23:45.663Z,101251.83
2023-09-10T04:24:07.939Z,101251.88
2023-09-10T04:24:30.337Z,101252.83
2023-09-10T04:24:52.733Z,101255.06
2023-09-10T04:25:14.973Z,101254.61